createdAt,value
2019-02-21T00:00:40.819Z,2.40
2019-02-21T00:03:10.897Z,2.30
2019-02-21T00:05:40.974Z,2.10
2019-02-21T00:08:16.347Z,2.10
2019-02-21T00:10:49.269Z,2.00
2019-02-21T00:13:19.362Z,1.90
2019-02-21T00:15:50.410Z,1.90
2019-02-21T00:18:20.518Z,1.90
2019-02-21T00:20:50.667Z,1.80
2019-02-21T00:23:28.214Z,1.70
2019-02-21T00:26:10.205Z,1.70
2019-02-21T00:28:40.313Z,1.60
2019-02-21T00:31:13.642Z,1.60
2019-02-21T00:33:50.015Z,1.60
2019-02-21T00:36:21.121Z,1.60
2019-02-21T00:38:52.499Z,1.70
2019-02-21T00:41:23.522Z,1.60
2019-02-21T00:43:53.597Z,1.60
2019-02-21T00:46:25.609Z,1.60
2019-02-21T00:48:56.703Z,1.60
2019-02-21T00:51:27.773Z,1.70
2019-02-21T00:53:57.859Z,1.70
2019-02-21T00:56:27.949Z,1.70
2019-02-21T00:58:58.050Z,1.60
2019-02-21T01:01:29.085Z,1.60
2019-02-21T01:04:07.916Z,1.60
2019-02-21T01:06:40.657Z,1.60
2019-02-21T01:09:22.605Z,1.60
2019-02-21T01:11:52.733Z,1.70
2019-02-21T01:14:22.873Z,1.70
2019-02-21T01:16:53.229Z,1.80
2019-02-21T01:19:23.557Z,1.90
2019-02-21T01:21:59.705Z,2.00
2019-02-21T01:24:30.777Z,2.00
2019-02-21T01:27:01.793Z,2.00
2019-02-21T01:29:33.882Z,2.10
2019-02-21T01:32:07.070Z,2.10
2019-02-21T01:34:38.106Z,1.90
2019-02-21T01:37:09.131Z,1.80
2019-02-21T01:39:52.473Z,1.70
2019-02-21T01:42:25.289Z,1.50
2019-02-21T01:44:55.381Z,1.40
2019-02-21T01:47:31.330Z,1.30
2019-02-21T01:50:02.429Z,1.30
2019-02-21T01:52:33.413Z,1.40
2019-02-21T01:55:11.168Z,1.40
2019-02-21T01:57:43.154Z,1.40
2019-02-21T02:00:13.762Z,1.20
2019-02-21T02:02:43.845Z,1.20
2019-02-21T02:05:13.929Z,1.10
2019-02-21T02:07:44.018Z,1.00
2019-02-21T02:10:14.094Z,1.00
2019-02-21T02:12:44.197Z,1.00
2019-02-21T02:15:17.377Z,1.00
2019-02-21T02:17:49.449Z,1.00
2019-02-21T02:20:21.507Z,0.90
2019-02-21T02:23:01.383Z,0.80
2019-02-21T02:25:31.474Z,0.80
2019-02-21T02:28:02.437Z,0.80
2019-02-21T02:30:32.536Z,0.90
2019-02-21T02:33:02.614Z,1.00
2019-02-21T02:35:32.728Z,1.00
2019-02-21T02:38:11.680Z,1.00
2019-02-21T02:40:42.801Z,1.00
2019-02-21T02:43:14.808Z,1.20
2019-02-21T02:45:44.910Z,1.20
2019-02-21T02:48:21.182Z,1.30
2019-02-21T02:51:01.534Z,1.30
2019-02-21T02:53:38.614Z,1.30
2019-02-21T02:56:18.673Z,1.40
2019-02-21T02:58:49.732Z,1.40
2019-02-21T03:01:33.964Z,1.50
2019-02-21T03:03:53.579Z,1.50
2019-02-21T03:06:27.643Z,1.50
2019-02-21T03:08:59.690Z,1.50
2019-02-21T03:11:39.879Z,1.40
2019-02-21T03:14:27.117Z,1.40
2019-02-21T03:16:57.249Z,1.40
2019-02-21T03:19:27.434Z,1.30
2019-02-21T03:21:58.457Z,1.30
2019-02-21T03:24:28.553Z,1.40
2019-02-21T03:26:58.627Z,1.40
2019-02-21T03:29:28.722Z,1.40
2019-02-21T03:31:59.768Z,1.30
2019-02-21T03:34:31.846Z,1.20
2019-02-21T03:37:02.123Z,1.20
2019-02-21T03:39:34.203Z,1.20
2019-02-21T03:42:05.231Z,1.20
2019-02-21T03:44:36.301Z,1.00
2019-02-21T03:47:07.322Z,0.90
2019-02-21T03:49:37.414Z,0.80
2019-02-21T03:52:09.419Z,0.70
2019-02-21T03:54:58.244Z,0.50
2019-02-21T03:57:36.192Z,0.50
2019-02-21T04:00:10.396Z,0.30
2019-02-21T04:02:41.420Z,0.30
2019-02-21T04:05:12.522Z,0.30
2019-02-21T04:07:43.602Z,0.40
2019-02-21T04:10:13.732Z,0.40
2019-02-21T04:12:50.806Z,0.30
2019-02-21T04:15:29.047Z,0.10
2019-02-21T04:17:59.138Z,0.00
2019-02-21T04:20:32.318Z,-0.10
2019-02-21T04:23:12.418Z,-0.20
2019-02-21T04:25:42.538Z,-0.10
2019-02-21T04:28:14.127Z,0.00
2019-02-21T04:30:55.094Z,-0.10
2019-02-21T04:33:26.156Z,-0.20
2019-02-21T04:35:56.262Z,-0.20
2019-02-21T04:38:26.343Z,-0.30
2019-02-21T04:40:57.337Z,-0.20
2019-02-21T04:43:27.440Z,-0.20
2019-02-21T04:45:57.543Z,-0.10
2019-02-21T04:48:27.657Z,-0.20
2019-02-21T04:51:03.716Z,-0.20
2019-02-21T04:53:39.827Z,-0.30
2019-02-21T04:56:09.936Z,-0.30
2019-02-21T04:58:40.998Z,-0.30
2019-02-21T05:01:11.102Z,-0.20
2019-02-21T05:03:44.166Z,-0.30
2019-02-21T05:06:16.253Z,-0.20
2019-02-21T05:08:47.282Z,-0.20
2019-02-21T05:11:18.604Z,-0.20
2019-02-21T05:13:49.715Z,-0.10
2019-02-21T05:16:19.807Z,-0.10
2019-02-21T05:18:49.898Z,-0.10
2019-02-21T05:21:21.982Z,-0.10
2019-02-21T05:23:52.058Z,-0.10
2019-02-21T05:26:24.759Z,0.00
2019-02-21T05:28:54.848Z,0.00
2019-02-21T05:31:27.614Z,-0.10
2019-02-21T05:34:10.726Z,-0.20
2019-02-21T05:36:48.451Z,-0.30
2019-02-21T05:39:20.438Z,-0.50
2019-02-21T05:42:07.426Z,-0.50
2019-02-21T05:44:46.204Z,-0.50
2019-02-21T05:47:34.694Z,-0.60
2019-02-21T05:50:19.791Z,-0.80
2019-02-21T05:53:13.573Z,-0.90
2019-02-21T05:55:47.291Z,-1.00
2019-02-21T05:58:43.936Z,-0.90
2019-02-21T06:01:27.667Z,-1.00
2019-02-21T06:04:02.321Z,-0.90
2019-02-21T06:06:34.134Z,-0.70
2019-02-21T06:09:09.414Z,-0.70
2019-02-21T06:11:44.882Z,-0.70
2019-02-21T06:14:40.970Z,-0.70
2019-02-21T06:17:12.706Z,-0.60
2019-02-21T06:19:44.427Z,-0.70
2019-02-21T06:22:17.134Z,-0.80
2019-02-21T06:24:50.851Z,-0.70
2019-02-21T06:27:31.411Z,-0.60
2019-02-21T06:30:03.170Z,-0.60
2019-02-21T06:32:34.200Z,-0.50
2019-02-21T06:35:05.590Z,-0.40
2019-02-21T06:37:37.746Z,-0.40
2019-02-21T06:40:13.591Z,-0.30
2019-02-21T06:42:44.606Z,-0.20
2019-02-21T06:45:34.059Z,-0.10
2019-02-21T06:48:07.967Z,0.00
2019-02-21T06:50:47.523Z,0.00
2019-02-21T06:53:17.031Z,0.00
2019-02-21T06:55:47.111Z,0.10
2019-02-21T06:58:18.190Z,0.30
2019-02-21T07:00:49.228Z,0.50
2019-02-21T07:03:21.305Z,0.80
2019-02-21T07:05:51.383Z,1.00
2019-02-21T07:08:21.475Z,1.20
2019-02-21T07:10:53.497Z,1.60
2019-02-21T07:13:26.866Z,2.20
2019-02-21T07:16:10.235Z,3.10
2019-02-21T07:18:41.263Z,3.70
2019-02-21T07:21:13.310Z,4.50
2019-02-21T07:23:44.375Z,5.30
2019-02-21T07:26:14.466Z,5.40
2019-02-21T07:28:47.227Z,5.20
2019-02-21T07:31:28.013Z,5.00
2019-02-21T07:33:49.999Z,4.70
2019-02-21T07:36:20.130Z,4.30
2019-02-21T07:38:51.123Z,4.00
2019-02-21T07:41:22.111Z,4.00
2019-02-21T07:43:54.131Z,4.00
2019-02-21T07:46:26.959Z,4.10
2019-02-21T07:48:57.075Z,4.10
2019-02-21T07:51:28.161Z,4.20
2019-02-21T07:53:59.215Z,4.30
2019-02-21T07:56:29.303Z,4.40
2019-02-21T07:59:02.515Z,4.40
2019-02-21T08:01:34.585Z,4.50
2019-02-21T08:04:06.638Z,4.50
2019-02-21T08:06:42.551Z,4.60
2019-02-21T08:09:13.631Z,4.60
2019-02-21T08:11:43.703Z,4.70
2019-02-21T08:14:16.057Z,4.70
2019-02-21T08:16:45.891Z,4.80
2019-02-21T08:19:16.015Z,4.90
2019-02-21T08:21:46.094Z,4.90
2019-02-21T08:24:16.757Z,4.90
2019-02-21T08:26:46.880Z,4.90
2019-02-21T08:29:20.801Z,5.00
2019-02-21T08:31:50.981Z,5.10
2019-02-21T08:34:22.712Z,5.20
2019-02-21T08:36:53.764Z,5.20
2019-02-21T08:39:28.883Z,5.30
2019-02-21T08:41:59.951Z,5.30
2019-02-21T08:44:30.133Z,5.30
2019-02-21T08:47:00.195Z,5.40
2019-02-21T08:49:30.287Z,5.60
2019-02-21T08:52:00.439Z,5.80
2019-02-21T08:54:42.404Z,6.00
2019-02-21T08:57:13.451Z,6.40
2019-02-21T08:59:43.534Z,7.30
2019-02-21T09:02:14.647Z,7.90
2019-02-21T09:04:48.368Z,8.10
2019-02-21T09:07:18.448Z,8.20
2019-02-21T09:09:48.543Z,8.40
2019-02-21T09:12:18.623Z,8.90
2019-02-21T09:14:50.094Z,9.60
2019-02-21T09:17:29.087Z,10.10
2019-02-21T09:19:59.267Z,10.40
2019-02-21T09:22:29.399Z,10.50
2019-02-21T09:24:59.504Z,10.90
2019-02-21T09:27:30.508Z,11.40
2019-02-21T09:30:00.624Z,11.90
2019-02-21T09:32:30.775Z,12.40
2019-02-21T09:35:02.847Z,12.90
2019-02-21T09:37:32.959Z,12.70
2019-02-21T09:40:10.767Z,12.20
2019-02-21T09:42:41.166Z,11.70
2019-02-21T09:45:21.399Z,12.30
2019-02-21T09:47:53.501Z,13.40
2019-02-21T09:50:23.611Z,15.20
2019-02-21T09:52:59.507Z,15.80
2019-02-21T09:55:29.857Z,16.30
2019-02-21T09:58:05.479Z,16.80
2019-02-21T10:00:36.058Z,16.80
2019-02-21T10:03:07.215Z,17.10
2019-02-21T10:05:38.199Z,18.70
2019-02-21T10:08:24.793Z,20.20
2019-02-21T10:10:56.827Z,20.90
2019-02-21T10:13:28.883Z,21.40
2019-02-21T10:15:59.927Z,22.50
2019-02-21T10:18:30.982Z,22.70
2019-02-21T10:21:02.035Z,23.70
2019-02-21T10:23:32.151Z,24.30
2019-02-21T10:26:03.175Z,23.10
2019-02-21T10:28:38.175Z,22.00
2019-02-21T10:31:18.071Z,21.80
2019-02-21T10:33:50.100Z,21.70
2019-02-21T10:36:20.183Z,20.40
2019-02-21T10:38:52.196Z,18.90
2019-02-21T10:41:22.335Z,17.70
2019-02-21T10:43:58.168Z,17.40
2019-02-21T10:46:31.045Z,17.20
2019-02-21T10:49:04.343Z,17.10
2019-02-21T10:51:35.495Z,16.10
2019-02-21T10:54:05.607Z,15.50
2019-02-21T10:56:48.019Z,15.90
2019-02-21T10:59:21.059Z,14.80
2019-02-21T11:01:51.215Z,13.70
2019-02-21T11:04:21.308Z,13.10
2019-02-21T11:06:51.419Z,13.00
2019-02-21T11:09:24.715Z,13.50
2019-02-21T11:11:54.795Z,14.40
2019-02-21T11:14:24.951Z,16.60
2019-02-21T11:16:57.067Z,17.80
2019-02-21T11:19:27.151Z,19.10
2019-02-21T11:21:57.253Z,22.30
2019-02-21T11:24:28.332Z,23.70
2019-02-21T11:26:58.450Z,23.30
2019-02-21T11:29:28.549Z,21.00
2019-02-21T11:31:58.769Z,18.90
2019-02-21T11:34:28.907Z,17.50
2019-02-21T11:36:59.003Z,15.90
2019-02-21T11:39:31.087Z,15.00
2019-02-21T11:42:03.931Z,14.50
2019-02-21T11:44:35.946Z,14.10
2019-02-21T11:47:12.351Z,13.80
2019-02-21T11:49:42.445Z,13.70
2019-02-21T11:52:13.531Z,13.40
2019-02-21T11:54:43.639Z,13.00
2019-02-21T11:57:13.727Z,13.10
2019-02-21T11:59:44.739Z,13.00
2019-02-21T12:02:14.827Z,13.00
2019-02-21T12:04:45.947Z,13.10
2019-02-21T12:07:17.043Z,13.20
2019-02-21T12:09:47.179Z,12.70
2019-02-21T12:12:23.127Z,12.20
2019-02-21T12:14:57.247Z,11.70
2019-02-21T12:17:30.523Z,11.40
2019-02-21T12:20:19.562Z,11.10
2019-02-21T12:22:52.699Z,11.30
2019-02-21T12:25:24.419Z,11.60
2019-02-21T12:27:54.518Z,11.90
2019-02-21T12:30:33.308Z,12.10
2019-02-21T12:33:08.751Z,12.40
2019-02-21T12:35:38.847Z,12.50
2019-02-21T12:38:08.959Z,12.20
2019-02-21T12:40:39.130Z,12.10
2019-02-21T12:43:09.235Z,11.90
2019-02-21T12:45:39.329Z,11.70
2019-02-21T12:48:10.339Z,11.80
2019-02-21T12:50:44.253Z,11.50
2019-02-21T12:53:12.259Z,11.30
2019-02-21T12:55:42.363Z,11.30
2019-02-21T12:58:12.540Z,11.10
2019-02-21T13:00:42.659Z,11.10
2019-02-21T13:03:13.723Z,11.10
2019-02-21T13:05:44.714Z,11.20
2019-02-21T13:08:16.843Z,11.10
2019-02-21T13:10:48.919Z,11.00
2019-02-21T13:13:19.952Z,10.90
2019-02-21T13:15:50.051Z,10.70
2019-02-21T13:18:20.207Z,10.70
2019-02-21T13:20:50.403Z,10.60
2019-02-21T13:23:28.297Z,10.50
2019-02-21T13:25:58.343Z,10.50
2019-02-21T13:28:28.455Z,10.40
2019-02-21T13:30:58.835Z,10.50
2019-02-21T13:33:28.931Z,10.50
2019-02-21T13:35:59.035Z,10.50
2019-02-21T13:38:29.139Z,10.50
2019-02-21T13:41:01.123Z,10.70
2019-02-21T13:43:33.130Z,10.80
2019-02-21T13:46:11.347Z,10.80
2019-02-21T13:48:41.476Z,11.00
2019-02-21T13:51:14.507Z,11.00
2019-02-21T13:53:44.648Z,11.10
2019-02-21T13:56:17.797Z,11.10
2019-02-21T13:58:47.892Z,11.70
2019-02-21T14:01:19.550Z,12.30
2019-02-21T14:03:52.748Z,12.20
2019-02-21T14:06:24.744Z,11.60
2019-02-21T14:08:59.360Z,11.10
2019-02-21T14:11:31.372Z,10.60
2019-02-21T14:14:13.377Z,10.40
2019-02-21T14:16:52.367Z,10.40
2019-02-21T14:19:25.479Z,10.40
2019-02-21T14:21:56.462Z,10.40
2019-02-21T14:24:36.414Z,10.40
2019-02-21T14:27:11.411Z,10.20
2019-02-21T14:29:43.406Z,10.20
2019-02-21T14:32:13.495Z,10.10
2019-02-21T14:34:50.800Z,10.10
2019-02-21T14:37:21.827Z,10.00
2019-02-21T14:39:52.818Z,10.10
2019-02-21T14:42:23.815Z,10.00
2019-02-21T14:44:53.944Z,10.00
2019-02-21T14:47:26.995Z,10.00
2019-02-21T14:49:57.107Z,10.00
2019-02-21T14:52:28.163Z,10.00
2019-02-21T14:54:58.279Z,10.00
2019-02-21T14:57:28.395Z,10.00
2019-02-21T14:59:58.523Z,9.90
2019-02-21T15:02:34.391Z,9.90
2019-02-21T15:05:10.012Z,9.90
2019-02-21T15:07:39.673Z,10.00
2019-02-21T15:10:11.202Z,9.90
2019-02-21T15:12:47.191Z,9.90
2019-02-21T15:15:27.509Z,10.00
2019-02-21T15:18:06.944Z,10.00
2019-02-21T15:20:37.125Z,10.00
2019-02-21T15:23:14.131Z,9.90
2019-02-21T15:25:44.239Z,9.80
2019-02-21T15:28:14.327Z,9.80
2019-02-21T15:30:50.315Z,9.70
2019-02-21T15:33:26.539Z,9.60
2019-02-21T15:35:56.671Z,9.60
2019-02-21T15:38:27.671Z,9.50
2019-02-21T15:41:04.231Z,9.40
2019-02-21T15:43:35.235Z,9.40
2019-02-21T15:46:08.040Z,9.30
2019-02-21T15:48:44.727Z,9.20
2019-02-21T15:51:15.211Z,9.10
2019-02-21T15:53:51.219Z,9.00
2019-02-21T15:56:21.336Z,9.00
2019-02-21T15:58:55.336Z,9.00
2019-02-21T16:01:26.157Z,9.00
2019-02-21T16:03:58.300Z,8.90
2019-02-21T16:06:29.426Z,8.90
2019-02-21T16:09:00.427Z,8.90
2019-02-21T16:11:30.621Z,8.90
2019-02-21T16:14:03.704Z,8.90
2019-02-21T16:16:34.056Z,8.90
2019-02-21T16:19:04.227Z,8.90
2019-02-21T16:21:37.573Z,8.90
2019-02-21T16:24:10.215Z,8.80
2019-02-21T16:26:41.291Z,8.80
2019-02-21T16:29:11.395Z,8.70
2019-02-21T16:31:49.721Z,8.70
2019-02-21T16:34:19.855Z,8.60
2019-02-21T16:37:02.161Z,8.60
2019-02-21T16:39:31.761Z,8.60
2019-02-21T16:42:01.881Z,8.60
2019-02-21T16:44:32.884Z,8.50
2019-02-21T16:47:06.183Z,8.30
2019-02-21T16:49:38.917Z,8.20
2019-02-21T16:52:09.895Z,8.00
2019-02-21T16:54:41.966Z,7.70
2019-02-21T16:57:12.115Z,7.50
2019-02-21T16:59:43.430Z,7.40
2019-02-21T17:02:14.499Z,7.20
2019-02-21T17:04:46.525Z,7.10
2019-02-21T17:07:20.189Z,6.90
2019-02-21T17:09:50.246Z,6.80
2019-02-21T17:12:20.343Z,6.70
2019-02-21T17:14:51.415Z,6.60
2019-02-21T17:17:23.467Z,6.50
2019-02-21T17:19:54.515Z,6.40
2019-02-21T17:22:25.539Z,6.20
2019-02-21T17:24:55.663Z,6.10
2019-02-21T17:27:32.580Z,6.00
2019-02-21T17:30:04.387Z,5.90
2019-02-21T17:32:34.467Z,5.70
2019-02-21T17:35:05.393Z,5.60
2019-02-21T17:37:37.531Z,5.50
2019-02-21T17:40:15.425Z,5.40
2019-02-21T17:42:46.545Z,5.40
2019-02-21T17:45:16.723Z,5.20
2019-02-21T17:47:46.815Z,5.00
2019-02-21T17:50:20.334Z,4.90
2019-02-21T17:52:50.420Z,4.90
2019-02-21T17:55:20.539Z,4.90
2019-02-21T17:57:50.673Z,4.90
2019-02-21T18:00:36.947Z,4.80
2019-02-21T18:03:07.093Z,4.60
2019-02-21T18:05:37.175Z,4.40
2019-02-21T18:08:07.251Z,4.40
2019-02-21T18:10:37.339Z,4.30
2019-02-21T18:13:08.415Z,4.40
2019-02-21T18:15:40.450Z,4.50
2019-02-21T18:18:16.502Z,4.70
2019-02-21T18:20:47.567Z,4.90
2019-02-21T18:23:17.653Z,5.10
2019-02-21T18:26:00.591Z,5.20
2019-02-21T18:28:30.681Z,5.20
2019-02-21T18:31:10.131Z,5.20
2019-02-21T18:33:40.239Z,5.10
2019-02-21T18:36:18.531Z,5.00
2019-02-21T18:38:48.617Z,5.00
2019-02-21T18:41:19.628Z,5.00
2019-02-21T18:43:52.707Z,5.00
2019-02-21T18:46:34.003Z,5.00
2019-02-21T18:49:04.159Z,5.00
2019-02-21T18:51:36.155Z,5.00
2019-02-21T18:54:14.090Z,5.00
2019-02-21T18:56:44.208Z,5.00
2019-02-21T18:59:14.311Z,5.10
2019-02-21T19:01:53.470Z,5.10
2019-02-21T19:04:26.515Z,5.20
2019-02-21T19:06:56.615Z,5.30
2019-02-21T19:09:34.467Z,5.40
2019-02-21T19:12:04.631Z,5.50
2019-02-21T19:14:36.691Z,5.60
2019-02-21T19:17:10.311Z,5.60
2019-02-21T19:19:41.391Z,5.70
2019-02-21T19:22:12.364Z,5.70
2019-02-21T19:24:44.593Z,5.70
2019-02-21T19:27:15.711Z,5.80
2019-02-21T19:29:47.731Z,5.80
2019-02-21T19:32:32.354Z,5.80
2019-02-21T19:35:09.522Z,5.80
2019-02-21T19:37:40.715Z,5.80
2019-02-21T19:40:22.334Z,5.80
2019-02-21T19:42:52.435Z,5.70
2019-02-21T19:45:28.446Z,5.80
2019-02-21T19:47:58.533Z,5.80
2019-02-21T19:50:40.516Z,5.70
2019-02-21T19:53:14.276Z,5.80
2019-02-21T19:55:44.575Z,5.80
2019-02-21T19:58:15.579Z,5.80
2019-02-21T20:00:45.911Z,5.80
2019-02-21T20:03:16.007Z,5.80
2019-02-21T20:05:56.418Z,5.90
2019-02-21T20:08:41.755Z,5.90
2019-02-21T20:11:14.855Z,6.00
2019-02-21T20:13:46.872Z,6.00
2019-02-21T20:16:20.987Z,6.00
2019-02-21T20:18:51.077Z,6.10
2019-02-21T20:21:21.167Z,6.10
2019-02-21T20:23:57.155Z,6.00
2019-02-21T20:26:35.163Z,5.90
2019-02-21T20:29:06.295Z,5.90
2019-02-21T20:31:36.387Z,5.80
2019-02-21T20:34:12.851Z,5.80
2019-02-21T20:36:51.072Z,5.80
2019-02-21T20:39:16.116Z,5.70
2019-02-21T20:41:47.159Z,5.80
2019-02-21T20:44:17.251Z,5.80
2019-02-21T20:46:47.447Z,5.70
2019-02-21T20:49:17.555Z,5.70
2019-02-21T20:51:49.819Z,5.60
2019-02-21T20:54:35.087Z,5.50
2019-02-21T20:57:05.179Z,5.50
2019-02-21T20:59:35.261Z,5.50
2019-02-21T21:02:08.516Z,5.50
2019-02-21T21:04:38.586Z,5.50
2019-02-21T21:07:24.532Z,5.40
2019-02-21T21:09:47.340Z,5.40
2019-02-21T21:12:19.335Z,5.40
2019-02-21T21:14:51.335Z,5.40
2019-02-21T21:17:32.056Z,5.40
2019-02-21T21:20:02.429Z,5.40
2019-02-21T21:22:33.723Z,5.50
2019-02-21T21:25:08.843Z,5.60
2019-02-21T21:27:42.299Z,5.60
2019-02-21T21:30:16.131Z,5.70
2019-02-21T21:32:48.175Z,5.70
2019-02-21T21:35:25.311Z,5.70
2019-02-21T21:37:58.165Z,5.70
2019-02-21T21:40:48.184Z,5.70
2019-02-21T21:43:27.701Z,5.80
2019-02-21T21:46:11.495Z,5.80
2019-02-21T21:48:41.927Z,5.90
2019-02-21T21:51:14.319Z,5.90
2019-02-21T21:53:44.447Z,6.00
2019-02-21T21:56:14.620Z,6.00
2019-02-21T21:58:44.789Z,6.10
2019-02-21T22:01:15.059Z,6.20
2019-02-21T22:03:52.991Z,6.20
2019-02-21T22:06:23.163Z,6.30
2019-02-21T22:09:04.243Z,6.30
2019-02-21T22:11:29.091Z,6.40
2019-02-21T22:13:59.187Z,6.40
2019-02-21T22:16:30.383Z,6.40
2019-02-21T22:19:02.467Z,6.40
2019-02-21T22:21:34.735Z,6.30
2019-02-21T22:24:14.127Z,6.30
2019-02-21T22:26:44.239Z,6.30
2019-02-21T22:29:14.354Z,6.20
2019-02-21T22:31:44.503Z,6.20
2019-02-21T22:34:14.655Z,6.20
2019-02-21T22:36:44.799Z,6.20
2019-02-21T22:39:19.877Z,6.30
2019-02-21T22:41:50.915Z,6.30
2019-02-21T22:44:21.083Z,6.30
2019-02-21T22:46:53.155Z,6.30
2019-02-21T22:49:23.311Z,6.40
2019-02-21T22:51:54.351Z,6.40
2019-02-21T22:54:32.541Z,6.40
2019-02-21T22:57:03.837Z,6.50
2019-02-21T22:59:35.975Z,6.50
2019-02-21T23:02:07.065Z,6.60
2019-02-21T23:04:43.863Z,6.60
2019-02-21T23:07:19.616Z,6.60
2019-02-21T23:10:07.633Z,6.60
2019-02-21T23:12:38.687Z,6.60
2019-02-21T23:15:08.971Z,6.60
2019-02-21T23:17:40.956Z,6.60
2019-02-21T23:20:12.965Z,6.60
2019-02-21T23:22:43.019Z,6.60
2019-02-21T23:25:13.103Z,6.70
2019-02-21T23:27:43.191Z,6.70
2019-02-21T23:30:13.631Z,6.70
2019-02-21T23:32:44.647Z,6.70
2019-02-21T23:35:16.507Z,6.70
2019-02-21T23:37:46.597Z,6.80
2019-02-21T23:40:17.679Z,6.80
2019-02-21T23:42:47.763Z,6.80
2019-02-21T23:45:17.939Z,6.80
2019-02-21T23:47:50.019Z,6.80
2019-02-21T23:50:20.487Z,6.80
2019-02-21T23:52:51.575Z,6.80
2019-02-21T23:55:21.683Z,6.80
2019-02-21T23:57:53.799Z,6.80
